Time;durP1;ratioP1;P1;durP2;ratioP2;P2;SDS_P1;SDS_P2;PMS_P1;PMS_P2;Temp;Humidity;BMP_temperature;BMP_pressure;BME280_temperature;BME280_humidity;BME280_pressure;Samples;Min_cycle;Max_cycle;Signal;HPM_P1;HPM_P2
2024/02/26 00:00:31;;;;;;;;;;;;;;;;;;4931830;28;89526;-77
2024/02/26 00:02:57;;;;;;;;;;;;;;;;;;4932027;28;89230;-77
2024/02/26 00:05:22;;;;;;;;;;;;;;;;;;4934643;28;89169;-77
2024/02/26 00:07:48;;;;;;;;;;;;;;;;;;4932079;28;89178;-77
2024/02/26 00:10:13;;;;;;;;;;;;;;;;;;4932122;28;88975;-77
2024/02/26 00:12:39;;;;;;;;;;;;;;;;;;4931744;28;89499;-77
2024/02/26 00:15:05;;;;;;;;;;;;;;;;;;4931867;28;89535;-78
2024/02/26 00:17:30;;;;;;;;;;;;;;;;;;4932270;28;89446;-77
2024/02/26 00:19:56;;;;;;;;;;;;;;;;;;4930243;28;92398;-77
2024/02/26 00:22:22;;;;;;;;;;;;;;;;;;4931699;28;89390;-76
2024/02/26 00:24:47;;;;;;;;;;;;;;;;;;4931152;28;89036;-78
2024/02/26 00:27:12;;;;;;;;;;;;;;;;;;4933857;28;89533;-77
2024/02/26 00:29:37;;;;;;;;;;;;;;;;;;4930126;28;90703;-77
2024/02/26 00:32:02;;;;;;;;;;;;;;;;;;4931755;28;89404;-77
2024/02/26 00:34:28;;;;;;;;;;;;;;;;;;4931142;28;89529;-77
2024/02/26 00:36:53;;;;;;;;;;;;;;;;;;4931190;28;89366;-77
2024/02/26 00:39:18;;;;;;;;;;;;;;;;;;4931667;28;89845;-78
2024/02/26 00:41:43;;;;;;;;;;;;;;;;;;4931472;28;89158;-77
2024/02/26 00:44:09;;;;;;;;;;;;;;;;;;4924527;28;89149;-78
2024/02/26 00:46:34;;;;;;;;;;;;;;;;;;4931097;28;89452;-77
2024/02/26 00:49:00;;;;;;;;;;;;;;;;;;4934154;28;89182;-77
2024/02/26 00:51:25;;;;;;;;;;;;;;;;;;4931428;28;89472;-77
2024/02/26 00:53:50;;;;;;;;;;;;;;;;;;4931276;28;89381;-77
2024/02/26 00:56:16;;;;;;;;;;;;;;;;;;4931334;28;89872;-79
2024/02/26 00:58:41;;;;;;;;;;;;;;;;;;4945742;28;90821;-79
2024/02/26 01:01:06;;;;;;;;;;;;;;;;;;4945437;28;90644;-77
2024/02/26 01:03:31;;;;;;;;;;;;;;;;;;4929480;28;89401;-78
2024/02/26 01:05:56;;;;;;;;;;;;;;;;;;4931044;28;90196;-77
2024/02/26 01:08:22;;;;;;;;;;;;;;;;;;4934172;28;89676;-78
2024/02/26 01:10:47;;;;;;;;;;;;;;;;;;4931006;28;89830;-77
2024/02/26 01:13:12;;;;;;;;;;;;;;;;;;4930555;28;89864;-78
2024/02/26 01:15:37;;;;;;;;;;;;;;;;;;4931282;28;89244;-78
2024/02/26 01:18:02;;;;;;;;;;;;;;;;;;4931163;28;89558;-77
2024/02/26 01:20:28;;;;;;;;;;;;;;;;;;4930945;28;90096;-77
2024/02/26 01:22:53;;;;;;;;;;;;;;;;;;4931226;28;89049;-76
2024/02/26 01:25:18;;;;;;;;;;;;;;;;;;4929390;28;92383;-77
2024/02/26 01:27:44;;;;;;;;;;;;;;;;;;4931070;28;89241;-77
2024/02/26 01:30:09;;;;;;;;;;;;;;;;;;4928815;28;89496;-77
2024/02/26 01:32:36;;;;;;;;;;;;;;;;;;4912263;28;89140;-78
2024/02/26 01:35:03;;;;;;;;;;;;;;;;;;4912572;28;88981;-78
2024/02/26 01:37:29;;;;;;;;;;;;;;;;;;4911894;28;89662;-76
2024/02/26 01:39:54;;;;;;;;;;;;;;;;;;4911519;28;89317;-78
2024/02/26 01:42:20;;;;;;;;;;;;;;;;;;4911545;28;89205;-77
2024/02/26 01:44:45;;;;;;;;;;;;;;;;;;4909511;28;91190;-78
2024/02/26 01:47:12;;;;;;;;;;;;;;;;;;4911219;28;89253;-78
2024/02/26 01:49:38;;;;;;;;;;;;;;;;;;4911292;28;89688;-77
2024/02/26 01:52:04;;;;;;;;;;;;;;;;;;4914394;28;90277;-77
2024/02/26 01:54:30;;;;;;;;;;;;;;;;;;4944299;28;89323;-77
2024/02/26 01:56:55;;;;;;;;;;;;;;;;;;4930525;28;89033;-78
2024/02/26 01:59:22;;;;;;;;;;;;;;;;;;4930325;28;89264;-79
2024/02/26 02:01:48;;;;;;;;;;;;;;;;;;4930329;28;89126;-77
2024/02/26 02:04:14;;;;;;;;;;;;;;;;;;4930452;28;89607;-76
2024/02/26 02:06:40;;;;;;;;;;;;;;;;;;4930353;28;89702;-77
2024/02/26 02:09:07;;;;;;;;;;;;;;;;;;4930222;28;89002;-77
2024/02/26 02:11:33;;;;;;;;;;;;;;;;;;4930616;28;89304;-78
2024/02/26 02:13:58;;;;;;;;;;;;;;;;;;4933812;28;89155;-78
2024/02/26 02:16:24;;;;;;;;;;;;;;;;;;4933792;28;88952;-78
2024/02/26 02:18:49;;;;;;;;;;;;;;;;;;4932744;28;91876;-77
2024/02/26 02:21:14;;;;;;;;;;;;;;;;;;4933952;28;89458;-78
2024/02/26 02:23:40;;;;;;;;;;;;;;;;;;4933823;28;89547;-77
2024/02/26 02:26:05;;;;;;;;;;;;;;;;;;4948367;28;91118;-77
2024/02/26 02:28:30;;;;;;;;;;;;;;;;;;4932423;28;90432;-77
2024/02/26 02:30:56;;;;;;;;;;;;;;;;;;4933755;28;89594;-79
2024/02/26 02:33:22;;;;;;;;;;;;;;;;;;4933114;28;89904;-78
2024/02/26 02:35:48;;;;;;;;;;;;;;;;;;4936221;28;89110;-77
2024/02/26 02:38:13;;;;;;;;;;;;;;;;;;4933811;28;89088;-76
2024/02/26 02:40:39;;;;;;;;;;;;;;;;;;4934027;28;89073;-77
2024/02/26 02:43:04;;;;;;;;;;;;;;;;;;4933550;28;89465;-77
2024/02/26 02:45:29;;;;;;;;;;;;;;;;;;4933434;28;89141;-77
2024/02/26 02:47:55;;;;;;;;;;;;;;;;;;4933444;28;89077;-77
2024/02/26 02:50:20;;;;;;;;;;;;;;;;;;4933075;28;89444;-80
2024/02/26 02:52:45;;;;;;;;;;;;;;;;;;4932253;28;89719;-76
2024/02/26 02:55:10;;;;;;;;;;;;;;;;;;4933357;28;88983;-78
2024/02/26 02:57:40;;;;;;;;;;;;;;;;;;4935255;28;89275;-77
2024/02/26 03:00:07;;;;;;;;;;;;;;;;;;4933349;28;89086;-78
2024/02/26 03:02:32;;;;;;;;;;;;;;;;;;4927553;28;89467;-78
2024/02/26 03:04:57;;;;;;;;;;;;;;;;;;4924786;28;90747;-78
2024/02/26 03:07:22;;;;;;;;;;;;;;;;;;4925093;28;89270;-78
2024/02/26 03:09:48;;;;;;;;;;;;;;;;;;4920073;28;89563;-78
2024/02/26 03:12:13;;;;;;;;;;;;;;;;;;4919433;28;89428;-77
2024/02/26 03:14:38;;;;;;;;;;;;;;;;;;4921332;28;89033;-78
2024/02/26 03:17:04;;;;;;;;;;;;;;;;;;4924774;28;89672;-76
2024/02/26 03:19:29;;;;;;;;;;;;;;;;;;4921761;28;89319;-78
2024/02/26 03:21:54;;;;;;;;;;;;;;;;;;4919285;28;90789;-79
2024/02/26 03:24:19;;;;;;;;;;;;;;;;;;4921236;28;90520;-79
2024/02/26 03:26:45;;;;;;;;;;;;;;;;;;4920494;28;90116;-78
2024/02/26 03:29:10;;;;;;;;;;;;;;;;;;4919416;28;92224;-78
2024/02/26 03:31:35;;;;;;;;;;;;;;;;;;4931144;28;92036;-77
2024/02/26 03:34:01;;;;;;;;;;;;;;;;;;4923984;28;89149;-78
2024/02/26 03:36:26;;;;;;;;;;;;;;;;;;4924199;28;89569;-80
2024/02/26 03:38:51;;;;;;;;;;;;;;;;;;4933999;28;89265;-78
2024/02/26 03:41:17;;;;;;;;;;;;;;;;;;4922315;28;89498;-77
2024/02/26 03:43:42;;;;;;;;;;;;;;;;;;4937757;28;92104;-78
2024/02/26 03:46:08;;;;;;;;;;;;;;;;;;4923551;28;89078;-78
2024/02/26 03:48:34;;;;;;;;;;;;;;;;;;4921942;28;89540;-77
2024/02/26 03:51:00;;;;;;;;;;;;;;;;;;4921617;28;89294;-79
2024/02/26 03:53:25;;;;;;;;;;;;;;;;;;4921539;28;90405;-77
2024/02/26 03:55:51;;;;;;;;;;;;;;;;;;4921187;28;89546;-79
2024/02/26 03:58:17;;;;;;;;;;;;;;;;;;4922375;28;89347;-78
2024/02/26 04:00:42;;;;;;;;;;;;;;;;;;4923571;28;89092;-78
2024/02/26 04:03:08;;;;;;;;;;;;;;;;;;4918800;28;89301;-77
2024/02/26 04:05:33;;;;;;;;;;;;;;;;;;4920378;28;89664;-78
2024/02/26 04:07:58;;;;;;;;;;;;;;;;;;4918804;28;90150;-78
2024/02/26 04:10:23;;;;;;;;;;;;;;;;;;4937707;28;92023;-78
2024/02/26 04:12:49;;;;;;;;;;;;;;;;;;4932787;28;90568;-77
2024/02/26 04:15:14;;;;;;;;;;;;;;;;;;4920811;28;89547;-80
2024/02/26 04:17:39;;;;;;;;;;;;;;;;;;4920410;28;90478;-79
2024/02/26 04:20:05;;;;;;;;;;;;;;;;;;4916613;28;89400;-79
2024/02/26 04:22:32;;;;;;;;;;;;;;;;;;4925752;28;89520;-78
2024/02/26 04:24:57;;;;;;;;;;;;;;;;;;4919106;28;89074;-78
2024/02/26 04:27:23;;;;;;;;;;;;;;;;;;4920324;28;89897;-81
2024/02/26 04:29:48;;;;;;;;;;;;;;;;;;4918425;28;90157;-77
2024/02/26 04:32:13;;;;;;;;;;;;;;;;;;4935998;28;90409;-77
2024/02/26 04:34:38;;;;;;;;;;;;;;;;;;4921840;28;92413;-77
2024/02/26 04:37:04;;;;;;;;;;;;;;;;;;4917554;28;91550;-81
2024/02/26 04:39:29;;;;;;;;;;;;;;;;;;4921351;28;89138;-79
2024/02/26 04:41:54;;;;;;;;;;;;;;;;;;4916411;28;89641;-78
2024/02/26 04:44:20;;;;;;;;;;;;;;;;;;4920803;28;89457;-79
2024/02/26 04:46:45;;;;;;;;;;;;;;;;;;4922216;28;89571;-78
2024/02/26 04:49:10;;;;;;;;;;;;;;;;;;4920114;28;91881;-82
2024/02/26 04:51:37;;;;;;;;;;;;;;;;;;4918289;28;89254;-80
2024/02/26 04:54:02;;;;;;;;;;;;;;;;;;4925435;28;92462;-78
2024/02/26 04:56:28;;;;;;;;;;;;;;;;;;4921222;28;89531;-78
2024/02/26 04:58:53;;;;;;;;;;;;;;;;;;4916218;28;89374;-81
2024/02/26 05:01:18;;;;;;;;;;;;;;;;;;4915551;28;89515;-79
2024/02/26 05:03:44;;;;;;;;;;;;;;;;;;4922618;28;89567;-80
2024/02/26 05:06:09;;;;;;;;;;;;;;;;;;4916209;28;89413;-80
2024/02/26 05:08:35;;;;;;;;;;;;;;;;;;4923541;28;89379;-79
2024/02/26 05:11:02;;;;;;;;;;;;;;;;;;4922718;28;89049;-79
2024/02/26 05:13:27;;;;;;;;;;;;;;;;;;4923845;28;92914;-79
2024/02/26 05:15:53;;;;;;;;;;;;;;;;;;4915634;28;91147;-78
2024/02/26 05:18:18;;;;;;;;;;;;;;;;;;4919193;28;89283;-78
2024/02/26 05:20:43;;;;;;;;;;;;;;;;;;4913566;28;89655;-78
2024/02/26 05:23:09;;;;;;;;;;;;;;;;;;4917331;28;90540;-78
2024/02/26 05:25:34;;;;;;;;;;;;;;;;;;4923779;28;89433;-78
2024/02/26 05:28:00;;;;;;;;;;;;;;;;;;4914996;28;89164;-78
2024/02/26 05:30:26;;;;;;;;;;;;;;;;;;4916002;28;89041;-78
2024/02/26 05:32:52;;;;;;;;;;;;;;;;;;4927271;28;89517;-77
2024/02/26 05:35:17;;;;;;;;;;;;;;;;;;4929824;28;92985;-80
2024/02/26 05:37:42;;;;;;;;;;;;;;;;;;4917003;28;90213;-77
2024/02/26 05:40:08;;;;;;;;;;;;;;;;;;4920771;28;92456;-79
2024/02/26 05:42:33;;;;;;;;;;;;;;;;;;4918212;28;90808;-77
2024/02/26 05:44:59;;;;;;;;;;;;;;;;;;4915685;28;89215;-80
2024/02/26 05:47:24;;;;;;;;;;;;;;;;;;4916779;28;89602;-80
2024/02/26 05:49:49;;;;;;;;;;;;;;;;;;4922422;28;90342;-76
2024/02/26 05:52:14;;;;;;;;;;;;;;;;;;4921097;28;89570;-79
2024/02/26 05:54:40;;;;;;;;;;;;;;;;;;4922573;28;89285;-78
2024/02/26 05:57:05;;;;;;;;;;;;;;;;;;4927157;28;89508;-78
2024/02/26 05:59:30;;;;;;;;;;;;;;;;;;4922647;28;89662;-79
2024/02/26 06:01:55;;;;;;;;;;;;;;;;;;4926908;28;89288;-77
2024/02/26 06:04:20;;;;;;;;;;;;;;;;;;4928053;28;89140;-78
2024/02/26 06:06:49;;;;;;;;;;;;;;;;;;4923659;28;89697;-78
2024/02/26 06:09:14;;;;;;;;;;;;;;;;;;4924508;28;90890;-78
2024/02/26 06:11:40;;;;;;;;;;;;;;;;;;4926666;28;90062;-77
2024/02/26 06:14:05;;;;;;;;;;;;;;;;;;4923029;28;89810;-78
2024/02/26 06:16:30;;;;;;;;;;;;;;;;;;4924144;28;90794;-79
2024/02/26 06:18:56;;;;;;;;;;;;;;;;;;4923783;28;89545;-78
2024/02/26 06:21:21;;;;;;;;;;;;;;;;;;4924895;28;90204;-78
2024/02/26 06:23:47;;;;;;;;;;;;;;;;;;4922733;28;90504;-80
2024/02/26 06:26:12;;;;;;;;;;;;;;;;;;4928384;28;90059;-81
2024/02/26 06:28:40;;;;;;;;;;;;;;;;;;4917449;28;89175;-77
2024/02/26 06:31:05;;;;;;;;;;;;;;;;;;4938907;28;90844;-77
2024/02/26 06:33:30;;;;;;;;;;;;;;;;;;4927168;28;89168;-77
2024/02/26 06:35:56;;;;;;;;;;;;;;;;;;4923793;28;89131;-77
2024/02/26 06:38:21;;;;;;;;;;;;;;;;;;4924946;28;92400;-77
2024/02/26 06:40:46;;;;;;;;;;;;;;;;;;4927806;28;91963;-77
2024/02/26 06:43:11;;;;;;;;;;;;;;;;;;4885540;28;1166617;-77
2024/02/26 06:45:36;;;;;;;;;;;;;;;;;;4931398;28;89560;-77
2024/02/26 06:48:02;;;;;;;;;;;;;;;;;;4929424;28;89559;-76
2024/02/26 06:50:27;;;;;;;;;;;;;;;;;;4920345;28;89640;-77
2024/02/26 06:52:52;;;;;;;;;;;;;;;;;;4927412;28;89564;-77
2024/02/26 06:55:18;;;;;;;;;;;;;;;;;;4925468;28;89149;-77
2024/02/26 06:57:43;;;;;;;;;;;;;;;;;;4921490;28;92650;-77
2024/02/26 07:00:12;;;;;;;;;;;;;;;;;;4921548;28;89456;-77
2024/02/26 07:02:37;;;;;;;;;;;;;;;;;;4926427;28;89333;-77
2024/02/26 07:05:03;;;;;;;;;;;;;;;;;;4921811;28;89186;-77
2024/02/26 07:07:28;;;;;;;;;;;;;;;;;;4932605;28;90692;-77
2024/02/26 07:09:54;;;;;;;;;;;;;;;;;;4921971;28;89563;-76
2024/02/26 07:12:21;;;;;;;;;;;;;;;;;;4922687;28;92535;-77
2024/02/26 07:14:46;;;;;;;;;;;;;;;;;;4929607;28;89093;-77
2024/02/26 07:17:11;;;;;;;;;;;;;;;;;;4922218;28;89438;-77
2024/02/26 07:19:36;;;;;;;;;;;;;;;;;;4924766;28;89368;-77
2024/02/26 07:22:02;;;;;;;;;;;;;;;;;;4923464;28;89153;-77
2024/02/26 07:24:27;;;;;;;;;;;;;;;;;;4923934;28;89573;-76
2024/02/26 07:26:54;;;;;;;;;;;;;;;;;;4915527;28;89234;-77
2024/02/26 07:29:19;;;;;;;;;;;;;;;;;;4925859;28;89098;-77
2024/02/26 07:31:45;;;;;;;;;;;;;;;;;;4914781;28;92479;-77
2024/02/26 07:34:10;;;;;;;;;;;;;;;;;;4924871;28;89378;-77
2024/02/26 07:36:35;;;;;;;;;;;;;;;;;;4927546;28;89973;-76
2024/02/26 07:39:01;;;;;;;;;;;;;;;;;;4933982;28;90927;-77
2024/02/26 07:41:26;;;;;;;;;;;;;;;;;;4924270;28;89086;-77
2024/02/26 07:43:52;;;;;;;;;;;;;;;;;;4920089;28;92357;-77
2024/02/26 07:46:17;;;;;;;;;;;;;;;;;;4937135;28;92028;-78
2024/02/26 07:48:43;;;;;;;;;;;;;;;;;;4923607;28;89092;-77
2024/02/26 07:51:08;;;;;;;;;;;;;;;;;;4921677;28;92876;-77
2024/02/26 07:53:33;;;;;;;;;;;;;;;;;;4926419;28;89402;-77
2024/02/26 07:55:58;;;;;;;;;;;;;;;;;;4929284;28;89028;-84
2024/02/26 07:58:23;;;;;;;;;;;;;;;;;;4922158;28;89555;-79
2024/02/26 08:00:49;;;;;;;;;;;;;;;;;;4921802;28;89004;-81
2024/02/26 08:03:15;;;;;;;;;;;;;;;;;;4915288;28;89609;-79
2024/02/26 08:05:42;;;;;;;;;;;;;;;;;;4916614;28;90798;-80
2024/02/26 08:08:07;;;;;;;;;;;;;;;;;;4925872;28;90522;-81
2024/02/26 08:10:33;;;;;;;;;;;;;;;;;;4921855;28;89181;-79
2024/02/26 08:13:04;;;;;;;;;;;;;;;;;;4919655;28;89340;-79
2024/02/26 08:15:30;;;;;;;;;;;;;;;;;;4921666;28;89169;-78
2024/02/26 08:17:55;;;;;;;;;;;;;;;;;;4922065;28;89342;-80
2024/02/26 08:20:20;;;;;;;;;;;;;;;;;;4924605;28;89128;-81
2024/02/26 08:22:46;;;;;;;;;;;;;;;;;;4921435;28;89427;-80
2024/02/26 08:25:11;;;;;;;;;;;;;;;;;;4921078;28;89738;-83
2024/02/26 08:27:36;;;;;;;;;;;;;;;;;;4922839;28;90680;-79
2024/02/26 08:30:01;;;;;;;;;;;;;;;;;;4939053;28;92305;-77
2024/02/26 08:32:27;;;;;;;;;;;;;;;;;;4929832;28;91269;-80
2024/02/26 08:34:52;;;;;;;;;;;;;;;;;;4919367;28;90481;-80
2024/02/26 08:37:18;;;;;;;;;;;;;;;;;;4922659;28;89420;-82
2024/02/26 08:39:43;;;;;;;;;;;;;;;;;;4924867;28;89377;-80
2024/02/26 08:42:09;;;;;;;;;;;;;;;;;;4925392;28;89811;-82
2024/02/26 08:44:34;;;;;;;;;;;;;;;;;;4942254;28;91805;-79
2024/02/26 08:46:59;;;;;;;;;;;;;;;;;;4936023;28;89844;-79
2024/02/26 08:49:24;;;;;;;;;;;;;;;;;;4919188;28;89705;-81
2024/02/26 08:51:50;;;;;;;;;;;;;;;;;;4920178;28;90807;-81
2024/02/26 08:54:15;;;;;;;;;;;;;;;;;;4927494;28;91311;-76
2024/02/26 08:56:40;;;;;;;;;;;;;;;;;;4941886;28;92669;-78
2024/02/26 08:59:06;;;;;;;;;;;;;;;;;;4917302;28;89269;-78
2024/02/26 09:01:31;;;;;;;;;;;;;;;;;;4924005;28;89164;-81
2024/02/26 09:03:56;;;;;;;;;;;;;;;;;;4922834;28;91125;-82
2024/02/26 09:06:21;;;;;;;;;;;;;;;;;;4923382;28;89868;-79
2024/02/26 09:08:47;;;;;;;;;;;;;;;;;;4923518;28;90192;-83
2024/02/26 09:11:12;;;;;;;;;;;;;;;;;;4926830;28;92100;-79
2024/02/26 09:13:38;;;;;;;;;;;;;;;;;;4935176;28;90275;-81
2024/02/26 09:16:03;;;;;;;;;;;;;;;;;;4927136;28;90384;-79
2024/02/26 09:18:28;;;;;;;;;;;;;;;;;;4928092;28;89541;-80
2024/02/26 09:20:54;;;;;;;;;;;;;;;;;;4927121;28;90948;-77
2024/02/26 09:23:19;;;;;;;;;;;;;;;;;;4925055;28;92302;-78
2024/02/26 09:25:44;;;;;;;;;;;;;;;;;;4928334;28;89910;-82
2024/02/26 09:28:09;;;;;;;;;;;;;;;;;;4921312;28;89616;-79
2024/02/26 09:30:35;;;;;;;;;;;;;;;;;;4916968;28;89975;-78
2024/02/26 09:33:00;;;;;;;;;;;;;;;;;;4922576;28;89596;-78
2024/02/26 09:35:26;;;;;;;;;;;;;;;;;;4916556;28;90019;-79
2024/02/26 09:37:52;;;;;;;;;;;;;;;;;;4912017;28;91536;-84
2024/02/26 09:40:17;;;;;;;;;;;;;;;;;;4921319;28;89211;-79
2024/02/26 09:42:45;;;;;;;;;;;;;;;;;;4926988;28;89428;-81
2024/02/26 09:45:19;;;;;;;;;;;;;;;;;;4914731;28;89344;-87
2024/02/26 09:47:45;;;;;;;;;;;;;;;;;;4920514;28;89376;-85
2024/02/26 09:50:13;;;;;;;;;;;;;;;;;;4920531;28;89430;-80
2024/02/26 09:52:39;;;;;;;;;;;;;;;;;;4918922;28;89610;-86
2024/02/26 09:55:05;;;;;;;;;;;;;;;;;;4915001;28;89577;-79
2024/02/26 09:57:31;;;;;;;;;;;;;;;;;;4914393;28;92299;-82
2024/02/26 09:59:59;;;;;;;;;;;;;;;;;;4919745;28;89287;-85
2024/02/26 10:02:24;;;;;;;;;;;;;;;;;;4918780;28;92743;-88
2024/02/26 10:04:51;;;;;;;;;;;;;;;;;;4915379;28;89642;-81
2024/02/26 10:07:17;;;;;;;;;;;;;;;;;;4910904;28;89602;-83
2024/02/26 10:09:42;;;;;;;;;;;;;;;;;;4920144;28;89373;-83
2024/02/26 10:12:10;;;;;;;;;;;;;;;;;;4919914;28;89699;-79
2024/02/26 10:14:36;;;;;;;;;;;;;;;;;;4922641;28;90170;-87
2024/02/26 10:17:01;;;;;;;;;;;;;;;;;;4916581;28;90928;-83
2024/02/26 10:19:27;;;;;;;;;;;;;;;;;;4920788;28;89124;-85
2024/02/26 10:21:55;;;;;;;;;;;;;;;;;;4920795;28;88947;-87
2024/02/26 10:24:21;;;;;;;;;;;;;;;;;;4925726;28;91989;-83
2024/02/26 10:26:47;;;;;;;;;;;;;;;;;;4923170;28;90511;-88
2024/02/26 10:29:12;;;;;;;;;;;;;;;;;;4912066;28;92290;-84
2024/02/26 10:31:37;;;;;;;;;;;;;;;;;;4915734;28;90575;-84
2024/02/26 10:34:02;;;;;;;;;;;;;;;;;;4921363;28;89607;-85
2024/02/26 10:36:28;;;;;;;;;;;;;;;;;;4923851;28;89224;-81
2024/02/26 10:38:54;;;;;;;;;;;;;;;;;;4922170;28;90388;-82
2024/02/26 10:41:20;;;;;;;;;;;;;;;;;;4926520;28;90109;-84
2024/02/26 10:43:47;;;;;;;;;;;;;;;;;;4924954;28;92022;-83
2024/02/26 10:46:12;;;;;;;;;;;;;;;;;;4928799;28;89389;-83
2024/02/26 10:48:37;;;;;;;;;;;;;;;;;;4931206;28;89378;-84
2024/02/26 10:51:03;;;;;;;;;;;;;;;;;;4938295;28;91373;-83
2024/02/26 10:53:29;;;;;;;;;;;;;;;;;;4930303;28;89567;-82
2024/02/26 10:55:57;;;;;;;;;;;;;;;;;;4922407;28;90384;-81
2024/02/26 10:58:22;;;;;;;;;;;;;;;;;;4915629;28;91893;-84
2024/02/26 11:00:49;;;;;;;;;;;;;;;;;;4918804;28;89865;-82
2024/02/26 11:03:17;;;;;;;;;;;;;;;;;;4927692;28;92181;-83
2024/02/26 11:05:42;;;;;;;;;;;;;;;;;;4923257;28;90449;-78
2024/02/26 11:08:09;;;;;;;;;;;;;;;;;;4925301;28;90109;-84
2024/02/26 11:10:35;;;;;;;;;;;;;;;;;;4925173;28;89749;-84
2024/02/26 11:13:01;;;;;;;;;;;;;;;;;;4924294;28;90475;-84
2024/02/26 11:15:27;;;;;;;;;;;;;;;;;;4924224;28;89348;-81
2024/02/26 11:17:53;;;;;;;;;;;;;;;;;;4928389;28;89260;-82
2024/02/26 11:20:19;;;;;;;;;;;;;;;;;;4924027;28;90575;-80
2024/02/26 11:22:44;;;;;;;;;;;;;;;;;;4915967;28;89029;-80
2024/02/26 11:25:11;;;;;;;;;;;;;;;;;;4928648;28;89079;-80
2024/02/26 11:27:45;;;;;;;;;;;;;;;;;;4929679;28;92983;-81
2024/02/26 11:30:11;;;;;;;;;;;;;;;;;;4932400;28;89549;-85
2024/02/26 11:32:37;;;;;;;;;;;;;;;;;;4926171;28;91434;-79
2024/02/26 11:35:04;;;;;;;;;;;;;;;;;;4924966;28;90123;-82
2024/02/26 11:37:29;;;;;;;;;;;;;;;;;;4919072;28;90869;-83
2024/02/26 11:39:54;;;;;;;;;;;;;;;;;;4921669;28;89693;-81
2024/02/26 11:42:23;;;;;;;;;;;;;;;;;;4922298;28;89693;-83
2024/02/26 11:44:48;;;;;;;;;;;;;;;;;;4918942;28;89604;-84
2024/02/26 11:47:20;;;;;;;;;;;;;;;;;;4924719;28;90259;-85
2024/02/26 11:49:46;;;;;;;;;;;;;;;;;;4921803;28;89596;-79
2024/02/26 11:52:13;;;;;;;;;;;;;;;;;;4922933;28;90826;-79
2024/02/26 11:54:38;;;;;;;;;;;;;;;;;;4927854;28;90239;-83
2024/02/26 11:57:03;;;;;;;;;;;;;;;;;;4926555;28;89251;-80
2024/02/26 11:59:37;;;;;;;;;;;;;;;;;;4922640;28;90774;-80
2024/02/26 12:02:02;;;;;;;;;;;;;;;;;;4929575;28;89244;-85
2024/02/26 12:04:30;;;;;;;;;;;;;;;;;;4927208;28;89324;-79
2024/02/26 12:06:57;;;;;;;;;;;;;;;;;;4926982;28;89423;-80
2024/02/26 12:09:36;;;;;;;;;;;;;;;;;;4923031;28;89241;-84
2024/02/26 12:12:02;;;;;;;;;;;;;;;;;;4925384;28;89195;-82
2024/02/26 12:14:27;;;;;;;;;;;;;;;;;;4926996;28;92810;-80
2024/02/26 12:16:53;;;;;;;;;;;;;;;;;;4928548;28;89546;-83
2024/02/26 12:19:18;;;;;;;;;;;;;;;;;;4923934;28;92813;-83
2024/02/26 12:21:44;;;;;;;;;;;;;;;;;;4930775;28;89299;-83
2024/02/26 12:24:13;;;;;;;;;;;;;;;;;;4924583;28;89724;-78
2024/02/26 12:26:38;;;;;;;;;;;;;;;;;;4928537;28;92312;-84
2024/02/26 12:29:04;;;;;;;;;;;;;;;;;;4928372;28;90008;-83
2024/02/26 12:31:31;;;;;;;;;;;;;;;;;;4929696;28;89910;-85
2024/02/26 12:33:56;;;;;;;;;;;;;;;;;;4925617;28;92927;-86
2024/02/26 12:36:23;;;;;;;;;;;;;;;;;;4929601;28;89558;-86
2024/02/26 12:38:48;;;;;;;;;;;;;;;;;;4924805;28;89227;-82
2024/02/26 12:41:14;;;;;;;;;;;;;;;;;;4925224;28;90503;-82
2024/02/26 12:43:39;;;;;;;;;;;;;;;;;;4926314;28;89082;-81
2024/02/26 12:46:06;;;;;;;;;;;;;;;;;;4924821;28;89426;-81
2024/02/26 12:48:31;;;;;;;;;;;;;;;;;;4918891;28;89617;-83
2024/02/26 12:50:57;;;;;;;;;;;;;;;;;;4923822;28;89551;-81
2024/02/26 12:53:22;;;;;;;;;;;;;;;;;;4921403;28;89162;-82
2024/02/26 12:55:47;;;;;;;;;;;;;;;;;;4917077;28;89216;-84
2024/02/26 12:58:13;;;;;;;;;;;;;;;;;;4922074;28;89553;-82
2024/02/26 13:00:38;;;;;;;;;;;;;;;;;;4918096;28;92122;-82
2024/02/26 13:03:04;;;;;;;;;;;;;;;;;;4917771;28;89192;-83
2024/02/26 13:05:30;;;;;;;;;;;;;;;;;;4922600;28;93013;-79
2024/02/26 13:07:55;;;;;;;;;;;;;;;;;;4919774;28;90779;-85
2024/02/26 13:10:21;;;;;;;;;;;;;;;;;;4923684;28;89104;-85
2024/02/26 13:12:47;;;;;;;;;;;;;;;;;;4940337;28;91212;-81
2024/02/26 13:15:16;;;;;;;;;;;;;;;;;;4928223;28;89502;-85
2024/02/26 13:17:41;;;;;;;;;;;;;;;;;;4925975;28;89074;-83
2024/02/26 13:20:09;;;;;;;;;;;;;;;;;;4923947;28;89584;-81
2024/02/26 13:22:35;;;;;;;;;;;;;;;;;;4922822;28;91976;-82
2024/02/26 13:25:02;;;;;;;;;;;;;;;;;;4927183;28;91140;-81
2024/02/26 13:27:27;;;;;;;;;;;;;;;;;;4920151;28;89273;-83
2024/02/26 13:30:12;;;;;;;;;;;;;;;;;;4919605;28;89186;-80
2024/02/26 13:32:38;;;;;;;;;;;;;;;;;;4918874;28;90140;-83
2024/02/26 13:35:07;;;;;;;;;;;;;;;;;;4932352;28;89545;-85
2024/02/26 13:37:32;;;;;;;;;;;;;;;;;;4920827;28;89433;-81
2024/02/26 13:39:59;;;;;;;;;;;;;;;;;;4920875;28;89576;-88
2024/02/26 13:42:28;;;;;;;;;;;;;;;;;;4923823;28;89828;-83
2024/02/26 13:44:54;;;;;;;;;;;;;;;;;;4915197;28;90099;-80
2024/02/26 13:47:19;;;;;;;;;;;;;;;;;;4926380;28;92324;-80
2024/02/26 13:49:44;;;;;;;;;;;;;;;;;;4920085;28;90198;-81
2024/02/26 13:52:09;;;;;;;;;;;;;;;;;;4931568;28;92637;-81
2024/02/26 13:54:35;;;;;;;;;;;;;;;;;;4919746;28;92212;-84
2024/02/26 13:57:00;;;;;;;;;;;;;;;;;;4921897;28;89411;-82
2024/02/26 13:59:25;;;;;;;;;;;;;;;;;;4916014;28;89248;-82
2024/02/26 14:01:52;;;;;;;;;;;;;;;;;;4936404;28;90663;-79
2024/02/26 14:04:18;;;;;;;;;;;;;;;;;;4923182;28;92296;-82
2024/02/26 14:06:43;;;;;;;;;;;;;;;;;;4919475;28;89661;-79
2024/02/26 14:09:09;;;;;;;;;;;;;;;;;;4920771;28;91042;-79
2024/02/26 14:11:34;;;;;;;;;;;;;;;;;;4927752;28;91705;-81
2024/02/26 14:13:59;;;;;;;;;;;;;;;;;;4925038;28;89213;-80
2024/02/26 14:16:25;;;;;;;;;;;;;;;;;;4926645;28;89411;-80
2024/02/26 14:18:50;;;;;;;;;;;;;;;;;;4924356;28;92046;-81
2024/02/26 14:21:15;;;;;;;;;;;;;;;;;;4925441;28;92148;-78
2024/02/26 14:23:42;;;;;;;;;;;;;;;;;;4930675;28;90686;-79
2024/02/26 14:26:07;;;;;;;;;;;;;;;;;;4923490;28;90513;-80
2024/02/26 14:28:34;;;;;;;;;;;;;;;;;;4927985;28;89127;-80
2024/02/26 14:30:59;;;;;;;;;;;;;;;;;;4920961;28;91016;-78
2024/02/26 14:33:24;;;;;;;;;;;;;;;;;;4920459;28;89678;-80
2024/02/26 14:35:49;;;;;;;;;;;;;;;;;;4923647;28;89079;-77
2024/02/26 14:38:15;;;;;;;;;;;;;;;;;;4938609;28;92369;-81
2024/02/26 14:40:40;;;;;;;;;;;;;;;;;;4934927;28;91948;-80
2024/02/26 14:43:06;;;;;;;;;;;;;;;;;;4924624;28;90466;-78
2024/02/26 14:45:32;;;;;;;;;;;;;;;;;;4920369;28;90097;-81
2024/02/26 14:47:57;;;;;;;;;;;;;;;;;;4926124;28;91251;-79
2024/02/26 14:50:22;;;;;;;;;;;;;;;;;;4923111;28;89367;-81
2024/02/26 14:52:47;;;;;;;;;;;;;;;;;;4925839;28;92152;-79
2024/02/26 14:55:13;;;;;;;;;;;;;;;;;;4924559;28;89600;-79
2024/02/26 14:57:38;;;;;;;;;;;;;;;;;;4923025;28;90095;-80
2024/02/26 15:00:05;;;;;;;;;;;;;;;;;;4921688;28;90041;-79
2024/02/26 15:02:30;;;;;;;;;;;;;;;;;;4930330;28;89986;-80
2024/02/26 15:04:56;;;;;;;;;;;;;;;;;;4920711;28;90116;-79
2024/02/26 15:07:21;;;;;;;;;;;;;;;;;;4921153;28;89335;-79
2024/02/26 15:09:46;;;;;;;;;;;;;;;;;;4921197;28;91579;-80
2024/02/26 15:12:11;;;;;;;;;;;;;;;;;;4926267;28;90838;-79
2024/02/26 15:14:37;;;;;;;;;;;;;;;;;;4926567;28;89391;-79
2024/02/26 15:17:03;;;;;;;;;;;;;;;;;;4915441;28;89609;-79
2024/02/26 15:19:28;;;;;;;;;;;;;;;;;;4918420;28;89361;-78
2024/02/26 15:21:53;;;;;;;;;;;;;;;;;;4925674;28;89737;-80
2024/02/26 15:24:18;;;;;;;;;;;;;;;;;;4925376;28;90052;-79
2024/02/26 15:26:44;;;;;;;;;;;;;;;;;;4925771;28;89077;-78
2024/02/26 15:29:10;;;;;;;;;;;;;;;;;;4922585;28;89771;-78
2024/02/26 15:31:35;;;;;;;;;;;;;;;;;;4912800;28;89497;-81
2024/02/26 15:34:00;;;;;;;;;;;;;;;;;;4920066;28;89083;-79
2024/02/26 15:36:26;;;;;;;;;;;;;;;;;;4925126;28;91937;-79
2024/02/26 15:38:51;;;;;;;;;;;;;;;;;;4921489;28;89879;-78
2024/02/26 15:41:16;;;;;;;;;;;;;;;;;;4921491;28;89108;-78
2024/02/26 15:43:42;;;;;;;;;;;;;;;;;;4921224;28;92389;-79
2024/02/26 15:46:07;;;;;;;;;;;;;;;;;;4923540;28;89766;-79
2024/02/26 15:48:33;;;;;;;;;;;;;;;;;;4925216;28;89071;-79
2024/02/26 15:50:58;;;;;;;;;;;;;;;;;;4923133;28;89379;-79
2024/02/26 15:53:23;;;;;;;;;;;;;;;;;;4918258;28;89808;-80
2024/02/26 15:55:48;;;;;;;;;;;;;;;;;;4922955;28;88975;-79
2024/02/26 15:58:14;;;;;;;;;;;;;;;;;;4918115;28;89999;-80
2024/02/26 16:00:40;;;;;;;;;;;;;;;;;;4925435;28;89648;-81
2024/02/26 16:03:06;;;;;;;;;;;;;;;;;;4918769;28;90248;-80
2024/02/26 16:05:31;;;;;;;;;;;;;;;;;;4917739;28;89185;-80
2024/02/26 16:07:59;;;;;;;;;;;;;;;;;;4919611;28;89392;-80
2024/02/26 16:10:27;;;;;;;;;;;;;;;;;;4923014;28;92391;-80
2024/02/26 16:12:53;;;;;;;;;;;;;;;;;;4910319;28;91265;-81
2024/02/26 16:15:20;;;;;;;;;;;;;;;;;;4919298;28;90421;-80
2024/02/26 16:17:46;;;;;;;;;;;;;;;;;;4917009;28;91716;-81
2024/02/26 16:20:12;;;;;;;;;;;;;;;;;;4921296;28;89036;-81
2024/02/26 16:22:38;;;;;;;;;;;;;;;;;;4938186;28;90748;-81
2024/02/26 16:25:06;;;;;;;;;;;;;;;;;;4920399;28;89833;-81
2024/02/26 16:27:31;;;;;;;;;;;;;;;;;;4921481;28;89077;-82
2024/02/26 16:29:57;;;;;;;;;;;;;;;;;;4928519;28;90032;-81
2024/02/26 16:32:22;;;;;;;;;;;;;;;;;;4928719;28;89566;-81
2024/02/26 16:34:47;;;;;;;;;;;;;;;;;;4918525;28;89579;-82